createdAt,value
2023-01-25T08:46:37.652Z,1.02
2023-01-25T08:47:37.301Z,0.99
2023-01-25T08:48:37.589Z,1.13
2023-01-25T08:49:38.468Z,1.06
2023-01-25T08:50:37.581Z,1.12
2023-01-25T08:51:37.417Z,1.1
2023-01-25T08:52:37.867Z,1.08
2023-01-25T08:53:37.639Z,1.08
2023-01-25T08:54:38.020Z,1.06
2023-01-25T08:55:37.559Z,1.12
2023-01-25T08:56:38.195Z,1.08
2023-01-25T08:57:37.889Z,1.1
2023-01-25T08:58:37.410Z,1.1
2023-01-25T08:59:37.332Z,1.05
2023-01-25T09:00:38.687Z,1.04
2023-01-25T09:01:37.336Z,0.98
2023-01-25T09:02:38.053Z,0.96
2023-01-25T09:03:38.023Z,1.04
2023-01-25T09:04:37.790Z,1.06
2023-01-25T09:05:37.805Z,1.02
2023-01-25T09:06:37.643Z,1.1
2023-01-25T09:07:38.528Z,1.14
2023-01-25T09:08:38.276Z,1.17
2023-01-25T09:09:37.624Z,1.2
2023-01-25T09:10:37.925Z,1.17
2023-01-25T09:11:37.338Z,1.22
2023-01-25T09:12:37.592Z,1.22
2023-01-25T09:13:38.204Z,1.31
2023-01-25T09:14:37.354Z,1.26
2023-01-25T09:15:37.371Z,1.28
2023-01-25T09:16:37.932Z,1.24
2023-01-25T09:17:37.683Z,1.24
2023-01-25T09:18:37.833Z,1.24
2023-01-25T09:19:38.018Z,1.24
2023-01-25T09:20:39.495Z,1.22
2023-01-25T09:21:37.840Z,1.22
2023-01-25T09:22:37.625Z,1.24
2023-01-25T09:24:07.811Z,1.19
2023-01-25T09:24:40.253Z,1.31
2023-01-25T09:25:37.371Z,1.35
2023-01-25T09:26:37.409Z,1.3
2023-01-25T09:27:38.397Z,1.35
2023-01-25T09:28:37.517Z,1.34
2023-01-25T09:29:41.445Z,1.31
2023-01-25T09:31:20.236Z,1.37
2023-01-25T09:31:38.648Z,1.35
2023-01-25T09:32:38.650Z,1.32
2023-01-25T09:33:37.914Z,1.31
2023-01-25T09:34:38.384Z,1.35
2023-01-25T09:35:38.680Z,1.35
2023-01-25T09:36:37.671Z,1.34
2023-01-25T09:37:38.171Z,1.22
2023-01-25T09:38:37.724Z,1.31
2023-01-25T09:39:38.296Z,1.31
2023-01-25T09:40:37.920Z,1.28
2023-01-25T09:41:37.485Z,1.3
2023-01-25T09:42:38.208Z,1.35
2023-01-25T09:43:38.144Z,1.26
2023-01-25T09:44:37.649Z,1.38
2023-01-25T09:45:38.880Z,1.35
2023-01-25T09:46:37.441Z,1.53
2023-01-25T09:47:37.426Z,1.53
2023-01-25T09:48:37.726Z,1.5
2023-01-25T09:49:37.668Z,1.59
2023-01-25T09:50:38.057Z,1.59
2023-01-25T09:51:37.416Z,1.55
2023-01-25T09:52:37.472Z,1.49
2023-01-25T09:53:38.536Z,1.48
2023-01-25T09:54:50.293Z,1.41
2023-01-25T09:55:38.133Z,1.38
2023-01-25T09:56:37.760Z,1.35
2023-01-25T09:57:37.694Z,1.38
2023-01-25T09:58:38.226Z,1.4
2023-01-25T09:59:39.095Z,1.37
2023-01-25T10:00:37.733Z,1.38
2023-01-25T10:01:45.294Z,1.38
2023-01-25T10:02:38.715Z,1.42
2023-01-25T10:03:38.515Z,1.41
2023-01-25T10:04:38.043Z,1.35
2023-01-25T10:05:38.049Z,1.31
2023-01-25T10:06:39.541Z,1.4
2023-01-25T10:07:37.742Z,1.31
2023-01-25T10:08:37.992Z,1.4
2023-01-25T10:09:37.855Z,1.42
2023-01-25T10:10:37.519Z,1.5
2023-01-25T10:11:37.466Z,1.53
2023-01-25T10:12:38.223Z,1.63
2023-01-25T10:13:37.763Z,1.56
2023-01-25T10:14:38.739Z,1.7
2023-01-25T10:15:38.460Z,1.7
2023-01-25T10:16:38.538Z,1.62
2023-01-25T10:17:37.560Z,1.6
2023-01-25T10:18:37.481Z,1.58
2023-01-25T10:19:37.496Z,1.73
2023-01-25T10:20:37.572Z,1.71
2023-01-25T10:21:37.280Z,1.7
2023-01-25T10:22:38.065Z,1.74
2023-01-25T10:23:37.795Z,1.8
2023-01-25T10:24:37.755Z,1.85
2023-01-25T10:25:38.750Z,1.81
2023-01-25T10:26:37.552Z,1.85
2023-01-25T10:27:37.805Z,1.77
2023-01-25T10:28:37.787Z,1.78
2023-01-25T10:29:38.242Z,1.8
2023-01-25T10:30:38.199Z,1.7
2023-01-25T10:31:38.109Z,1.71
2023-01-25T10:32:54.872Z,1.7
2023-01-25T10:33:42.412Z,1.71
2023-01-25T10:34:57.764Z,1.73
2023-01-25T10:35:48.544Z,1.74
2023-01-25T10:36:37.700Z,1.67
2023-01-25T10:37:37.601Z,1.78
2023-01-25T10:38:38.196Z,1.74
2023-01-25T10:39:37.791Z,1.74
2023-01-25T10:40:37.605Z,1.78
2023-01-25T10:41:37.801Z,1.8
2023-01-25T10:42:38.379Z,1.87
2023-01-25T10:43:37.470Z,1.74
2023-01-25T10:44:37.827Z,1.91
2023-01-25T10:45:38.040Z,1.91
2023-01-25T10:46:38.339Z,2
2023-01-25T10:47:37.614Z,1.92
2023-01-25T10:48:38.982Z,1.95
2023-01-25T10:49:38.635Z,1.91
2023-01-25T10:50:37.845Z,2.06
2023-01-25T10:51:38.657Z,1.99
2023-01-25T10:52:38.028Z,2.02
2023-01-25T10:53:38.476Z,1.94
2023-01-25T10:54:39.116Z,1.99
2023-01-25T10:55:37.579Z,2.07
2023-01-25T10:56:38.230Z,2.04
2023-01-25T10:57:37.616Z,2
2023-01-25T10:58:37.879Z,1.94
2023-01-25T10:59:38.428Z,1.91
2023-01-25T11:00:38.096Z,1.91
2023-01-25T11:01:37.762Z,1.94
2023-01-25T11:02:38.038Z,1.89
2023-01-25T11:03:37.932Z,1.78
2023-01-25T11:04:38.386Z,1.87
2023-01-25T11:05:37.904Z,1.91
2023-01-25T11:06:38.033Z,1.78
2023-01-25T11:07:39.481Z,1.88
2023-01-25T11:08:37.668Z,1.88
2023-01-25T11:09:38.740Z,1.95
2023-01-25T11:10:38.365Z,1.97
2023-01-25T11:11:39.951Z,1.88
2023-01-25T11:12:38.372Z,1.99
2023-01-25T11:13:37.668Z,1.91
2023-01-25T11:14:37.652Z,2.04
2023-01-25T11:15:38.598Z,2
2023-01-25T11:16:37.962Z,1.97
2023-01-25T11:17:37.651Z,2
2023-01-25T11:18:38.204Z,1.95
2023-01-25T11:19:37.951Z,1.94
2023-01-25T11:20:38.749Z,1.91
2023-01-25T11:21:38.083Z,1.95
2023-01-25T11:22:37.963Z,1.95
2023-01-25T11:23:38.320Z,2
2023-01-25T11:24:37.945Z,2.02
2023-01-25T11:25:37.690Z,2.06
2023-01-25T11:26:41.836Z,1.99
2023-01-25T11:27:38.895Z,1.94
2023-01-25T11:28:37.472Z,1.92
2023-01-25T11:29:37.937Z,2.06
2023-01-25T11:30:37.884Z,2.02
2023-01-25T11:31:39.463Z,1.94
2023-01-25T11:32:37.683Z,1.99
2023-01-25T11:33:38.016Z,1.94
2023-01-25T11:34:40.294Z,2
2023-01-25T11:35:38.871Z,1.92
2023-01-25T11:36:38.420Z,1.89
2023-01-25T11:37:37.727Z,2.08
2023-01-25T11:38:37.700Z,2.07
2023-01-25T11:39:38.252Z,2.06
2023-01-25T11:40:38.008Z,1.99
2023-01-25T11:41:40.037Z,1.99
2023-01-25T11:42:38.939Z,1.94
2023-01-25T11:43:38.625Z,1.92
2023-01-25T11:44:38.260Z,1.78
2023-01-25T11:45:38.363Z,1.8
2023-01-25T11:46:40.357Z,1.7
2023-01-25T11:47:38.592Z,1.85
2023-01-25T11:48:37.760Z,1.76
2023-01-25T11:49:38.233Z,1.84
2023-01-25T11:50:38.478Z,1.85
2023-01-25T11:51:38.165Z,1.87
2023-01-25T11:52:38.024Z,1.89
2023-01-25T11:53:37.766Z,1.89
2023-01-25T11:54:37.786Z,1.95
2023-01-25T11:55:38.322Z,1.97
2023-01-25T11:56:39.103Z,1.88
2023-01-25T11:57:39.035Z,1.94
2023-01-25T11:58:38.523Z,1.94
2023-01-25T11:59:37.799Z,1.89
2023-01-25T12:00:38.671Z,1.97
2023-01-25T12:01:38.049Z,1.88
2023-01-25T12:02:38.575Z,1.97
2023-01-25T12:03:38.310Z,2
2023-01-25T12:04:38.185Z,1.91
2023-01-25T12:05:37.777Z,1.92
2023-01-25T12:06:38.816Z,1.91
2023-01-25T12:07:38.276Z,1.91
2023-01-25T12:08:39.171Z,1.97
2023-01-25T12:09:38.851Z,1.94
2023-01-25T12:10:37.556Z,1.99
2023-01-25T12:11:37.777Z,1.92
2023-01-25T12:12:37.992Z,1.92
2023-01-25T12:13:38.690Z,1.94
2023-01-25T12:14:38.602Z,2.02
2023-01-25T12:15:38.389Z,2.07
2023-01-25T12:16:38.748Z,2.11
2023-01-25T12:17:38.504Z,2.11
2023-01-25T12:18:38.269Z,2.06
2023-01-25T12:19:37.821Z,2.07
2023-01-25T12:20:38.490Z,2.2
2023-01-25T12:21:38.963Z,2.14
2023-01-25T12:22:37.837Z,2.15
2023-01-25T12:23:38.074Z,2.24
2023-01-25T12:24:37.967Z,2.15
2023-01-25T12:25:38.320Z,2.25
2023-01-25T12:26:38.439Z,2.28
2023-01-25T12:27:37.864Z,2.15
2023-01-25T12:28:37.866Z,2.13
2023-01-25T12:29:38.977Z,2.24
2023-01-25T12:30:38.326Z,2.07
2023-01-25T12:31:37.945Z,2.06
2023-01-25T12:32:39.461Z,2.02
2023-01-25T12:33:37.844Z,1.97
2023-01-25T12:34:37.933Z,1.94
2023-01-25T12:35:37.610Z,1.95
2023-01-25T12:36:38.119Z,1.87
2023-01-25T12:37:38.843Z,1.94
2023-01-25T12:38:38.132Z,1.94
2023-01-25T12:39:37.607Z,1.95
2023-01-25T12:40:38.261Z,1.97
2023-01-25T12:41:38.148Z,1.94
2023-01-25T12:42:38.599Z,1.88
2023-01-25T12:43:38.328Z,1.87
2023-01-25T12:44:38.157Z,1.91
2023-01-25T12:45:38.654Z,1.97
2023-01-25T12:46:39.064Z,1.92
2023-01-25T12:47:38.238Z,1.99
2023-01-25T12:48:38.897Z,1.94
2023-01-25T12:49:38.392Z,1.94
2023-01-25T12:50:38.373Z,1.97
2023-01-25T12:51:38.161Z,1.89
2023-01-25T12:52:38.191Z,1.88
2023-01-25T12:53:40.366Z,1.95
2023-01-25T12:54:37.920Z,1.89
2023-01-25T12:55:38.185Z,1.95
2023-01-25T12:56:38.492Z,1.94
2023-01-25T12:57:38.272Z,1.94
2023-01-25T12:58:42.938Z,1.97
2023-01-25T12:59:38.163Z,2.08
2023-01-25T13:00:38.678Z,2.1
2023-01-25T13:01:38.504Z,2.13
2023-01-25T13:02:38.484Z,2.11
2023-01-25T13:03:38.699Z,2.15
2023-01-25T13:04:38.500Z,2.17
2023-01-25T13:05:37.934Z,2.2
2023-01-25T13:06:38.745Z,2.14
2023-01-25T13:07:38.201Z,2.06
2023-01-25T13:08:38.543Z,2.08
2023-01-25T13:09:38.882Z,2.13
2023-01-25T13:10:38.382Z,2.06
2023-01-25T13:11:38.365Z,2.1
2023-01-25T13:12:38.035Z,2.08
2023-01-25T13:13:37.965Z,2.11
2023-01-25T13:14:38.387Z,2.11
2023-01-25T13:15:38.892Z,2.2
2023-01-25T13:16:38.402Z,2.15
2023-01-25T13:17:42.370Z,2.08
2023-01-25T13:18:38.293Z,2.1
2023-01-25T13:19:37.996Z,2.17
2023-01-25T13:20:38.615Z,2.14
2023-01-25T13:21:38.863Z,2.04
2023-01-25T13:22:38.053Z,2.06
2023-01-25T13:23:38.246Z,2.07
2023-01-25T13:24:38.014Z,2
2023-01-25T13:25:39.503Z,2
2023-01-25T13:26:38.609Z,2
2023-01-25T13:27:38.002Z,1.97
2023-01-25T13:28:38.743Z,1.97
2023-01-25T13:29:40.060Z,1.99
2023-01-25T13:30:38.810Z,2.06
2023-01-25T13:31:58.879Z,1.99
2023-01-25T13:32:38.293Z,1.99
2023-01-25T13:33:39.075Z,1.95
2023-01-25T13:34:38.433Z,1.95
2023-01-25T13:35:39.032Z,1.95
2023-01-25T13:36:38.642Z,1.97
2023-01-25T13:37:38.299Z,2
2023-01-25T13:38:38.611Z,2.04
2023-01-25T13:39:38.036Z,1.94
2023-01-25T13:40:38.041Z,1.97
2023-01-25T13:41:38.407Z,1.94
2023-01-25T13:42:37.847Z,1.92
2023-01-25T13:43:38.292Z,1.85
2023-01-25T13:44:38.596Z,1.8
2023-01-25T13:45:38.907Z,1.89
2023-01-25T13:46:38.152Z,1.74
2023-01-25T13:47:38.932Z,1.84
2023-01-25T13:48:40.719Z,1.77
2023-01-25T13:49:40.577Z,1.87
2023-01-25T13:50:38.394Z,1.85
2023-01-25T13:51:38.662Z,1.89
2023-01-25T13:52:38.641Z,1.91
2023-01-25T13:53:38.067Z,1.84
2023-01-25T13:54:38.891Z,1.91
2023-01-25T13:55:38.338Z,1.87
2023-01-25T13:56:38.395Z,1.91
2023-01-25T13:57:38.343Z,1.8
2023-01-25T13:58:38.451Z,1.88
2023-01-25T13:59:38.490Z,1.88
2023-01-25T14:00:38.218Z,1.88
2023-01-25T14:01:38.401Z,1.97
2023-01-25T14:02:38.421Z,1.91
2023-01-25T14:03:38.471Z,1.81
2023-01-25T14:04:38.440Z,1.87
2023-01-25T14:05:38.427Z,1.88
2023-01-25T14:06:38.523Z,1.85
2023-01-25T14:07:39.200Z,1.87
2023-01-25T14:08:38.147Z,1.89
2023-01-25T14:09:38.626Z,1.84
2023-01-25T14:10:38.598Z,1.84
2023-01-25T14:11:38.995Z,1.77
2023-01-25T14:12:38.658Z,1.76
2023-01-25T14:13:38.136Z,1.81
2023-01-25T14:14:38.449Z,1.76
2023-01-25T14:15:39.012Z,1.68
2023-01-25T14:16:38.620Z,1.87
2023-01-25T14:17:38.798Z,1.87
2023-01-25T14:18:38.453Z,1.84
2023-01-25T14:19:39.165Z,1.85
2023-01-25T14:20:38.301Z,1.78
2023-01-25T14:21:38.208Z,1.84
2023-01-25T14:22:38.773Z,1.84
2023-01-25T14:23:38.026Z,1.87
2023-01-25T14:24:38.155Z,1.91
2023-01-25T14:25:38.482Z,1.91
2023-01-25T14:26:38.672Z,1.92
2023-01-25T14:27:39.037Z,1.78
2023-01-25T14:28:38.980Z,1.73
2023-01-25T14:30:38.356Z,1.8
2023-01-25T14:31:39.245Z,1.8
2023-01-25T14:32:38.213Z,1.84
2023-01-25T14:33:38.469Z,1.8
2023-01-25T14:34:38.624Z,1.81
2023-01-25T14:36:24.251Z,1.68
2023-01-25T14:36:39.035Z,1.85
2023-01-25T14:37:38.476Z,1.84
2023-01-25T14:38:38.498Z,1.78
2023-01-25T14:39:38.453Z,1.77
2023-01-25T14:40:38.208Z,1.71
2023-01-25T14:41:40.069Z,1.77
2023-01-25T14:42:38.812Z,1.73
2023-01-25T14:43:38.218Z,1.67
2023-01-25T14:44:38.999Z,1.68
2023-01-25T14:45:38.286Z,1.73
2023-01-25T14:46:38.284Z,1.67
2023-01-25T14:47:41.043Z,1.7
2023-01-25T14:48:38.549Z,1.62
2023-01-25T14:49:38.330Z,1.7
2023-01-25T14:50:39.109Z,1.66
2023-01-25T14:51:40.658Z,1.62
2023-01-25T14:52:38.831Z,1.59
2023-01-25T14:53:38.799Z,1.59
2023-01-25T14:54:38.656Z,1.62
2023-01-25T14:55:38.747Z,1.66
2023-01-25T14:56:38.170Z,1.6
2023-01-25T14:57:39.109Z,1.58
2023-01-25T14:58:41.146Z,1.58
2023-01-25T14:59:38.052Z,1.62
2023-01-25T15:00:39.725Z,1.58
2023-01-25T15:01:38.628Z,1.6
2023-01-25T15:02:38.527Z,1.67
2023-01-25T15:03:39.142Z,1.62
2023-01-25T15:04:40.611Z,1.6
2023-01-25T15:05:38.284Z,1.53
2023-01-25T15:06:39.207Z,1.5
2023-01-25T15:07:38.284Z,1.59
2023-01-25T15:08:38.563Z,1.49
2023-01-25T15:09:38.802Z,1.55
2023-01-25T15:10:38.783Z,1.53
2023-01-25T15:11:39.253Z,1.56
2023-01-25T15:12:39.142Z,1.4
2023-01-25T15:13:39.227Z,1.48
2023-01-25T15:14:40.320Z,1.41
2023-01-25T15:15:38.320Z,1.4
2023-01-25T15:16:39.545Z,1.44
2023-01-25T15:17:38.570Z,1.41
2023-01-25T15:18:38.967Z,1.4
2023-01-25T15:19:38.684Z,1.38
2023-01-25T15:20:38.055Z,1.37
2023-01-25T15:21:38.564Z,1.34
2023-01-25T15:22:39.485Z,1.44
2023-01-25T15:23:38.647Z,1.45
2023-01-25T15:24:47.149Z,1.38
2023-01-25T15:25:38.701Z,1.44
2023-01-25T15:26:38.916Z,1.35
2023-01-25T15:27:39.407Z,1.4
2023-01-25T15:28:39.213Z,1.38
2023-01-25T15:29:38.708Z,1.4
2023-01-25T15:30:39.121Z,1.38
2023-01-25T15:31:38.902Z,1.37
2023-01-25T15:32:39.198Z,1.38
2023-01-25T15:33:38.679Z,1.38
2023-01-25T15:34:39.204Z,1.42
2023-01-25T15:35:39.355Z,1.37
2023-01-25T15:36:38.512Z,1.32
2023-01-25T15:37:39.488Z,1.37
2023-01-25T15:38:38.748Z,1.34
2023-01-25T15:39:38.688Z,1.28
2023-01-25T15:40:39.468Z,1.26
2023-01-25T15:41:38.783Z,1.28
2023-01-25T15:42:39.189Z,1.2
2023-01-25T15:43:38.784Z,1.24
2023-01-25T15:44:40.009Z,1.24
2023-01-25T15:45:39.159Z,1.22
2023-01-25T15:46:39.311Z,1.23
2023-01-25T15:47:38.654Z,1.26
2023-01-25T15:48:39.069Z,1.24
2023-01-25T15:49:38.645Z,1.16
2023-01-25T15:50:38.750Z,1.26
2023-01-25T15:51:40.673Z,1.22
2023-01-25T15:52:39.241Z,1.28
2023-01-25T15:53:38.945Z,1.22
2023-01-25T15:54:40.806Z,1.26
2023-01-25T15:55:38.729Z,1.26
2023-01-25T15:56:39.054Z,1.26
2023-01-25T15:57:39.965Z,1.24
2023-01-25T15:58:39.134Z,1.26
2023-01-25T15:59:38.637Z,1.24
2023-01-25T16:00:38.862Z,1.22
2023-01-25T16:01:39.596Z,1.23
2023-01-25T16:02:39.492Z,1.2
2023-01-25T16:03:38.387Z,1.22
2023-01-25T16:04:38.704Z,1.2
2023-01-25T16:05:38.635Z,1.19
2023-01-25T16:06:38.974Z,1.23
2023-01-25T16:07:38.410Z,1.19
2023-01-25T16:08:38.467Z,1.26
2023-01-25T16:09:39.030Z,1.26
2023-01-25T16:10:38.416Z,1.24
2023-01-25T16:11:38.400Z,1.24
2023-01-25T16:12:39.790Z,1.32
2023-01-25T16:13:38.678Z,1.31
2023-01-25T16:14:39.595Z,1.3
2023-01-25T16:15:38.873Z,1.24
2023-01-25T16:16:38.859Z,1.28
2023-01-25T16:17:39.301Z,1.26
2023-01-25T16:18:39.004Z,1.26
2023-01-25T16:19:39.152Z,1.24
2023-01-25T16:20:39.714Z,1.26
2023-01-25T16:21:38.721Z,1.32
2023-01-25T16:22:39.111Z,1.28
2023-01-25T16:23:38.754Z,1.24
2023-01-25T16:24:41.711Z,1.22
2023-01-25T16:25:38.355Z,1.26
2023-01-25T16:26:38.751Z,1.22
2023-01-25T16:27:38.726Z,1.24
2023-01-25T16:28:40.098Z,1.23
2023-01-25T16:29:38.939Z,1.14
2023-01-25T16:30:39.306Z,1.19
2023-01-25T16:31:39.154Z,1.2
2023-01-25T16:32:38.897Z,1.17
2023-01-25T16:33:39.453Z,1.17
2023-01-25T16:34:39.306Z,1.14
2023-01-25T16:35:38.948Z,1.16
2023-01-25T16:36:42.079Z,1.2
2023-01-25T16:37:38.830Z,1.2
2023-01-25T16:38:39.378Z,1.19
2023-01-25T16:39:38.708Z,1.14
2023-01-25T16:40:39.901Z,1.2
2023-01-25T16:41:38.832Z,1.22
2023-01-25T16:42:38.703Z,1.24
2023-01-25T16:43:47.523Z,1.22
2023-01-25T16:44:38.989Z,1.17
2023-01-25T16:45:38.753Z,1.26
2023-01-25T16:46:39.123Z,1.26
2023-01-25T16:47:38.492Z,1.31
2023-01-25T16:48:39.896Z,1.23
2023-01-25T16:49:39.489Z,1.22
2023-01-25T16:50:38.705Z,1.34
2023-01-25T16:51:38.487Z,1.24
2023-01-25T16:52:39.075Z,1.34
2023-01-25T16:53:38.795Z,1.28
2023-01-25T16:54:39.016Z,1.22
2023-01-25T16:55:38.842Z,1.31
2023-01-25T16:56:39.017Z,1.2
2023-01-25T16:57:39.419Z,1.22
2023-01-25T16:58:38.920Z,1.23
2023-01-25T16:59:38.749Z,1.2
2023-01-25T17:00:39.135Z,1.17
2023-01-25T17:01:39.362Z,1.24
2023-01-25T17:02:53.331Z,1.2
2023-01-25T17:03:39.024Z,1.22
2023-01-25T17:04:38.523Z,1.22
2023-01-25T17:05:39.556Z,1.17
2023-01-25T17:06:39.458Z,1.23
2023-01-25T17:07:38.533Z,1.2
2023-01-25T17:08:39.393Z,1.16
2023-01-25T17:09:38.525Z,1.14
2023-01-25T17:10:38.983Z,1.12
2023-01-25T17:11:39.039Z,1.16
2023-01-25T17:12:38.816Z,1.14
2023-01-25T17:13:39.273Z,1.1
2023-01-25T17:14:39.085Z,1.02
2023-01-25T17:15:39.472Z,1.12
2023-01-25T17:16:39.257Z,1.08
2023-01-25T17:17:38.599Z,1.14
2023-01-25T17:18:39.314Z,1.13
2023-01-25T17:19:39.266Z,1.1
2023-01-25T17:20:39.192Z,1.12
2023-01-25T17:21:38.797Z,1.13
2023-01-25T17:22:38.918Z,1.16
2023-01-25T17:23:39.336Z,1.12
2023-01-25T17:24:40.187Z,1.1
2023-01-25T17:25:40.568Z,0.99
2023-01-25T17:26:39.168Z,1.02
2023-01-25T17:27:39.327Z,1.05
2023-01-25T17:28:39.033Z,1.05
2023-01-25T17:29:39.057Z,1.05
2023-01-25T17:30:39.491Z,1.06
2023-01-25T17:31:39.138Z,1.1
2023-01-25T17:32:40.422Z,1.06
2023-01-25T17:33:38.583Z,1.04
2023-01-25T17:34:39.229Z,1.02
2023-01-25T17:35:39.189Z,1.13
2023-01-25T17:36:39.437Z,1.1
2023-01-25T17:37:38.897Z,1.02
2023-01-25T17:38:39.127Z,1.12
2023-01-25T17:39:39.207Z,1.02
2023-01-25T17:40:39.830Z,1.08
2023-01-25T17:41:38.590Z,1.04
2023-01-25T17:42:38.418Z,1.1
2023-01-25T17:43:39.277Z,1.04
2023-01-25T17:44:39.098Z,1.1
2023-01-25T17:45:38.608Z,1.05
2023-01-25T17:46:39.303Z,1.04
2023-01-25T17:47:39.639Z,1.02
2023-01-25T17:48:38.921Z,0.94
2023-01-25T17:49:38.909Z,1.05
2023-01-25T17:50:39.604Z,0.99
2023-01-25T17:51:38.953Z,0.96
2023-01-25T17:52:39.589Z,0.98
2023-01-25T17:53:39.042Z,1.04
2023-01-25T17:54:39.083Z,1.01
2023-01-25T17:55:39.988Z,0.99
2023-01-25T17:56:41.873Z,1.02
2023-01-25T17:57:38.346Z,0.94
2023-01-25T17:58:39.011Z,0.99
2023-01-25T17:59:38.382Z,0.96
2023-01-25T18:00:39.299Z,0.99
2023-01-25T18:01:39.028Z,1.05
2023-01-25T18:02:39.359Z,1.01
2023-01-25T18:03:40.525Z,1.02
2023-01-25T18:04:38.899Z,1.05
2023-01-25T18:05:38.971Z,1.1
2023-01-25T18:06:39.223Z,1.05
2023-01-25T18:07:38.722Z,1.01
2023-01-25T18:08:39.236Z,1.04
2023-01-25T18:09:39.028Z,1.08
2023-01-25T18:10:38.376Z,1.02
2023-01-25T18:11:39.241Z,1.05
2023-01-25T18:12:39.093Z,1.04
2023-01-25T18:13:38.410Z,0.96
2023-01-25T18:14:38.506Z,1.04
2023-01-25T18:15:39.057Z,0.95
2023-01-25T18:16:39.592Z,1.05
2023-01-25T18:17:39.356Z,0.99
2023-01-25T18:18:39.226Z,0.91
2023-01-25T18:19:39.702Z,1.02
2023-01-25T18:20:39.250Z,1.04
2023-01-25T18:21:38.945Z,0.98
2023-01-25T18:22:40.673Z,1.01
2023-01-25T18:23:39.003Z,1.02
2023-01-25T18:24:39.759Z,0.88
2023-01-25T18:25:39.056Z,0.98
2023-01-25T18:26:38.983Z,0.99
2023-01-25T18:27:39.220Z,0.87
2023-01-25T18:28:38.923Z,0.86
2023-01-25T18:29:38.660Z,0.83
2023-01-25T18:30:39.772Z,0.83
2023-01-25T18:31:39.637Z,0.86
2023-01-25T18:32:39.449Z,0.83
2023-01-25T18:33:38.680Z,0.84
2023-01-25T18:34:38.680Z,0.87
2023-01-25T18:35:40.173Z,0.88
2023-01-25T18:36:39.606Z,0.86
2023-01-25T18:37:39.110Z,0.86
2023-01-25T18:38:39.355Z,0.92
2023-01-25T18:39:38.994Z,0.81
2023-01-25T18:40:38.841Z,0.78
2023-01-25T18:41:39.307Z,0.78
2023-01-25T18:42:38.993Z,0.73
2023-01-25T18:43:39.095Z,0.77
2023-01-25T18:44:38.945Z,0.7
2023-01-25T18:45:39.309Z,0.74
2023-01-25T18:46:39.397Z,0.7
2023-01-25T18:47:39.087Z,0.76
2023-01-25T18:48:39.388Z,0.81
2023-01-25T18:49:38.944Z,0.86
2023-01-25T18:50:38.945Z,0.68
2023-01-25T18:52:11.574Z,0.68
2023-01-25T18:52:39.019Z,0.73
2023-01-25T18:53:39.042Z,0.69
2023-01-25T18:54:39.452Z,0.76
2023-01-25T18:55:39.495Z,0.69
2023-01-25T18:56:38.983Z,0.7
2023-01-25T18:57:38.955Z,0.77
2023-01-25T18:58:38.725Z,0.7
2023-01-25T18:59:38.594Z,0.7
2023-01-25T19:00:38.964Z,0.81
2023-01-25T19:01:39.791Z,0.78
2023-01-25T19:02:38.669Z,0.78
2023-01-25T19:03:38.973Z,0.78
2023-01-25T19:04:39.297Z,0.87
2023-01-25T19:05:40.535Z,0.73
2023-01-25T19:06:39.354Z,0.87
2023-01-25T19:07:39.049Z,0.73
2023-01-25T19:08:39.150Z,0.77
2023-01-25T19:09:39.786Z,0.78
2023-01-25T19:10:38.811Z,0.86
2023-01-25T19:11:38.992Z,0.78
2023-01-25T19:12:39.345Z,0.69
2023-01-25T19:13:39.234Z,0.7
2023-01-25T19:14:40.664Z,0.76
2023-01-25T19:15:39.003Z,0.7
2023-01-25T19:16:38.820Z,0.68
2023-01-25T19:17:39.259Z,0.69
2023-01-25T19:18:38.891Z,0.62
2023-01-25T19:19:39.124Z,0.7
2023-01-25T19:20:38.559Z,0.66
2023-01-25T19:21:39.102Z,0.66
2023-01-25T19:22:39.433Z,0.63
2023-01-25T19:23:38.950Z,0.76
2023-01-25T19:24:39.050Z,0.65
2023-01-25T19:25:39.820Z,0.66
2023-01-25T19:26:39.117Z,0.65
2023-01-25T19:27:39.008Z,0.65
2023-01-25T19:28:39.486Z,0.69
2023-01-25T19:29:39.324Z,0.62
2023-01-25T19:30:39.472Z,0.73
2023-01-25T19:31:39.571Z,0.6
2023-01-25T19:32:38.963Z,0.63
2023-01-25T19:33:39.656Z,0.6
2023-01-25T19:34:39.375Z,0.66
2023-01-25T19:35:39.066Z,0.63
2023-01-25T19:36:39.441Z,0.56
2023-01-25T19:37:39.095Z,0.56
2023-01-25T19:38:39.394Z,0.65
2023-01-25T19:39:39.076Z,0.6
2023-01-25T19:40:39.034Z,0.7
2023-01-25T19:41:39.167Z,0.6
2023-01-25T19:42:38.791Z,0.62
2023-01-25T19:43:39.184Z,0.73
2023-01-25T19:44:38.838Z,0.66
2023-01-25T19:45:38.784Z,0.68
2023-01-25T19:46:39.805Z,0.74
2023-01-25T19:47:39.034Z,0.66
2023-01-25T19:48:39.020Z,0.7
2023-01-25T19:49:39.848Z,0.73
2023-01-25T19:50:39.091Z,0.74
2023-01-25T19:51:39.216Z,0.68
2023-01-25T19:52:38.819Z,0.74
2023-01-25T19:53:39.131Z,0.73
2023-01-25T19:54:39.484Z,0.73
2023-01-25T19:55:39.118Z,0.77
2023-01-25T19:56:39.426Z,0.76
2023-01-25T19:57:39.402Z,0.77
2023-01-25T19:58:38.817Z,0.74
2023-01-25T19:59:38.956Z,0.73
2023-01-25T20:00:39.098Z,0.78
2023-01-25T20:01:39.244Z,0.74
2023-01-25T20:02:39.791Z,0.83
2023-01-25T20:03:38.942Z,0.76
2023-01-25T20:04:39.100Z,0.8
2023-01-25T20:05:39.804Z,0.78
2023-01-25T20:06:38.814Z,0.76
2023-01-25T20:07:39.728Z,0.8
2023-01-25T20:08:39.430Z,0.92
2023-01-25T20:09:38.917Z,0.88
2023-01-25T20:10:40.040Z,0.86
2023-01-25T20:11:38.863Z,0.87
2023-01-25T20:12:38.819Z,0.86
2023-01-25T20:13:39.428Z,0.91
2023-01-25T20:14:39.200Z,0.84
2023-01-25T20:15:39.275Z,0.81
2023-01-25T20:16:39.403Z,0.73
2023-01-25T20:17:38.830Z,0.76
2023-01-25T20:18:38.902Z,0.78
2023-01-25T20:19:38.856Z,0.74
2023-01-25T20:20:39.761Z,0.73
2023-01-25T20:21:40.194Z,0.7
2023-01-25T20:22:39.107Z,0.7
2023-01-25T20:23:39.159Z,0.78
2023-01-25T20:24:39.938Z,0.77
2023-01-25T20:25:39.164Z,0.73
2023-01-25T20:26:39.819Z,0.73
2023-01-25T20:27:39.261Z,0.68
2023-01-25T20:28:38.751Z,0.77
2023-01-25T20:29:40.015Z,0.68
2023-01-25T20:30:39.318Z,0.76
2023-01-25T20:31:39.500Z,0.74
2023-01-25T20:32:39.239Z,0.7
2023-01-25T20:33:39.291Z,0.74
2023-01-25T20:34:40.815Z,0.65
2023-01-25T20:35:39.209Z,0.74
2023-01-25T20:36:39.370Z,0.74
2023-01-25T20:37:39.553Z,0.7
2023-01-25T20:38:39.150Z,0.7
2023-01-25T20:39:38.966Z,0.74
2023-01-25T20:40:40.131Z,0.73
2023-01-25T20:41:39.367Z,0.8
2023-01-25T20:42:39.216Z,0.76
2023-01-25T20:43:38.943Z,0.76
2023-01-25T20:44:39.463Z,0.78
2023-01-25T20:45:38.964Z,0.76
2023-01-25T20:46:39.052Z,0.69
2023-01-25T20:47:39.607Z,0.68
2023-01-25T20:48:39.142Z,0.7
2023-01-25T20:49:39.203Z,0.77
2023-01-25T20:50:39.786Z,0.7
2023-01-25T20:51:38.948Z,0.76
2023-01-25T20:52:39.676Z,0.73
2023-01-25T20:53:39.069Z,0.77
2023-01-25T20:54:39.198Z,0.73
2023-01-25T20:55:39.530Z,0.76
2023-01-25T20:56:39.097Z,0.76
2023-01-25T20:57:39.267Z,0.74
2023-01-25T20:58:39.653Z,0.74
2023-01-25T20:59:39.138Z,0.76
2023-01-25T21:00:39.467Z,0.7
2023-01-25T21:01:39.537Z,0.76
2023-01-25T21:02:39.031Z,0.7
2023-01-25T21:03:38.952Z,0.7
2023-01-25T21:04:38.738Z,0.74
2023-01-25T21:05:39.398Z,0.76
2023-01-25T21:06:39.495Z,0.76
2023-01-25T21:07:38.924Z,0.73
2023-01-25T21:08:39.199Z,0.77
2023-01-25T21:09:40.826Z,0.74
2023-01-25T21:10:39.189Z,0.73
2023-01-25T21:11:39.931Z,0.78
2023-01-25T21:12:39.208Z,0.81
2023-01-25T21:13:39.182Z,0.7
2023-01-25T21:14:39.059Z,0.76
2023-01-25T21:15:39.069Z,0.74
2023-01-25T21:16:40.023Z,0.7
2023-01-25T21:17:39.080Z,0.68
2023-01-25T21:18:39.525Z,0.7
2023-01-25T21:19:39.410Z,0.7
2023-01-25T21:20:39.212Z,0.68
2023-01-25T21:21:39.281Z,0.7
2023-01-25T21:22:39.093Z,0.73
2023-01-25T21:23:38.705Z,0.77
2023-01-25T21:24:39.519Z,0.78
2023-01-25T21:25:40.240Z,0.78
2023-01-25T21:26:39.223Z,0.74
2023-01-25T21:27:39.813Z,0.74
2023-01-25T21:28:39.239Z,0.69
2023-01-25T21:29:39.210Z,0.7
2023-01-25T21:30:39.675Z,0.76
2023-01-25T21:31:39.314Z,0.78
2023-01-25T21:32:39.273Z,0.7
2023-01-25T21:33:39.257Z,0.74
2023-01-25T21:34:38.994Z,0.78
2023-01-25T21:35:39.240Z,0.73
2023-01-25T21:36:39.722Z,0.77
2023-01-25T21:37:39.226Z,0.77
2023-01-25T21:38:39.612Z,0.74
2023-01-25T21:39:39.243Z,0.74
2023-01-25T21:40:39.038Z,0.77
2023-01-25T21:41:39.250Z,0.76
2023-01-25T21:42:39.244Z,0.78
2023-01-25T21:43:39.382Z,0.8
2023-01-25T21:44:38.993Z,0.7
2023-01-25T21:45:39.623Z,0.73
2023-01-25T21:46:39.867Z,0.73
2023-01-25T21:47:39.059Z,0.74
2023-01-25T21:48:39.299Z,0.76
2023-01-25T21:49:39.494Z,0.74
2023-01-25T21:50:39.903Z,0.83
2023-01-25T21:51:39.785Z,0.76
2023-01-25T21:52:41.168Z,0.76
2023-01-25T21:53:39.107Z,0.76
2023-01-25T21:54:40.253Z,0.77
2023-01-25T21:55:39.303Z,0.76
2023-01-25T21:56:39.758Z,0.76
2023-01-25T21:57:39.364Z,0.77
2023-01-25T21:58:39.072Z,0.8
2023-01-25T21:59:39.333Z,0.76
2023-01-25T22:00:39.367Z,0.73
2023-01-25T22:01:39.470Z,0.74
2023-01-25T22:02:39.863Z,0.7
2023-01-25T22:03:39.391Z,0.74
2023-01-25T22:04:40.055Z,0.78
2023-01-25T22:05:39.305Z,0.74
2023-01-25T22:06:39.349Z,0.74
2023-01-25T22:07:39.787Z,0.66
2023-01-25T22:08:39.123Z,0.7
2023-01-25T22:09:39.417Z,0.74
2023-01-25T22:10:39.399Z,0.74